createdAt,value
2022-11-04T00:00:28.603Z,9.82
2022-11-04T00:02:58.755Z,9.97
2022-11-04T00:05:27.112Z,9.39
2022-11-04T00:08:14.043Z,9.67
2022-11-04T00:11:00.851Z,9.93
2022-11-04T00:13:31.074Z,9.88
2022-11-04T00:16:21.389Z,9.15
2022-11-04T00:18:49.766Z,9.55
2022-11-04T00:21:36.462Z,9.66
2022-11-04T00:24:24.256Z,9.88
2022-11-04T00:27:10.858Z,9.45
2022-11-04T00:29:39.698Z,9.71
2022-11-04T00:32:27.390Z,8.97
2022-11-04T00:34:56.382Z,9.42
2022-11-04T00:37:25.052Z,9.71
2022-11-04T00:39:53.329Z,9.58
2022-11-04T00:42:28.067Z,9.63
2022-11-04T00:45:04.546Z,9.55
2022-11-04T00:47:46.222Z,9.61
2022-11-04T00:50:27.189Z,9.55
2022-11-04T00:53:15.349Z,9.60
2022-11-04T00:55:58.089Z,8.90
2022-11-04T00:58:39.594Z,9.12
2022-11-04T01:01:28.267Z,9.31
2022-11-04T01:04:11.117Z,8.78
2022-11-04T01:06:41.349Z,9.03
2022-11-04T01:09:24.496Z,9.24
2022-11-04T01:12:01.992Z,9.14
2022-11-04T01:14:43.457Z,8.41
2022-11-04T01:17:25.722Z,8.53
2022-11-04T01:20:08.691Z,8.36
2022-11-04T01:22:52.839Z,8.69
2022-11-04T01:25:36.090Z,8.62
2022-11-04T01:28:09.684Z,8.96
2022-11-04T01:30:50.246Z,8.95
2022-11-04T01:33:23.807Z,8.29
2022-11-04T01:36:08.426Z,8.69
2022-11-04T01:38:47.066Z,8.13
2022-11-04T01:41:36.104Z,8.61
2022-11-04T01:44:53.817Z,8.50
2022-11-04T01:48:12.228Z,8.59
2022-11-04T01:50:51.326Z,7.77
2022-11-04T01:53:44.279Z,8.21
2022-11-04T01:56:26.626Z,8.11
2022-11-04T01:59:01.992Z,8.43
2022-11-04T02:01:45.934Z,8.28
2022-11-04T02:04:36.308Z,8.29
2022-11-04T02:07:20.241Z,8.29
2022-11-04T02:09:55.328Z,8.05
2022-11-04T02:12:51.376Z,7.19
2022-11-04T02:15:58.655Z,7.52
2022-11-04T02:19:00.051Z,7.60
2022-11-04T02:21:47.938Z,7.31
2022-11-04T02:24:44.490Z,7.41
2022-11-04T02:27:36.750Z,7.40
2022-11-04T02:30:21.774Z,7.44
2022-11-04T02:33:20.277Z,7.13
2022-11-04T02:36:13.571Z,7.54
2022-11-04T02:39:03.409Z,6.83
2022-11-04T02:41:58.531Z,7.30
2022-11-04T02:44:38.127Z,6.96
2022-11-04T02:47:19.530Z,7.33
2022-11-04T02:49:53.695Z,7.68
2022-11-04T02:52:50.211Z,6.65
2022-11-04T02:55:46.194Z,7.45
2022-11-04T02:58:38.384Z,7.34
2022-11-04T03:01:23.070Z,7.69
2022-11-04T03:04:10.218Z,7.01
2022-11-04T03:06:54.410Z,7.60
2022-11-04T03:09:36.189Z,7.00
2022-11-04T03:12:09.776Z,6.60
2022-11-04T03:14:52.171Z,7.26
2022-11-04T03:17:53.508Z,7.13
2022-11-04T03:20:38.760Z,7.53
2022-11-04T03:23:17.075Z,7.18
2022-11-04T03:25:59.349Z,7.40
2022-11-04T03:28:49.471Z,7.46
2022-11-04T03:31:35.992Z,7.56
2022-11-04T03:34:16.554Z,7.38
2022-11-04T03:36:51.881Z,7.46
2022-11-04T03:39:21.178Z,7.04
2022-11-04T03:41:51.859Z,6.51
2022-11-04T03:44:20.856Z,6.45
2022-11-04T03:46:49.542Z,6.82
2022-11-04T03:49:25.681Z,6.86
2022-11-04T03:52:04.208Z,7.25
2022-11-04T03:54:38.035Z,6.64
2022-11-04T03:57:46.888Z,6.66
2022-11-04T04:00:29.573Z,5.78
2022-11-04T04:03:21.911Z,6.05
2022-11-04T04:06:22.211Z,6.44
2022-11-04T04:08:54.290Z,6.15
2022-11-04T04:11:55.945Z,6.69
2022-11-04T04:14:41.426Z,6.30
2022-11-04T04:17:34.593Z,6.88
2022-11-04T04:20:08.440Z,6.33
2022-11-04T04:22:40.483Z,6.77
2022-11-04T04:25:28.520Z,6.39
2022-11-04T04:27:57.736Z,6.75
2022-11-04T04:30:26.203Z,6.80
2022-11-04T04:32:58.963Z,6.48
2022-11-04T04:35:43.260Z,5.86
2022-11-04T04:38:43.310Z,5.66
2022-11-04T04:41:39.815Z,6.06
2022-11-04T04:44:43.847Z,5.65
2022-11-04T04:47:20.364Z,6.29
2022-11-04T04:49:52.768Z,6.07
2022-11-04T04:52:21.331Z,6.40
2022-11-04T04:54:49.697Z,5.56
2022-11-04T04:57:18.112Z,6.03
2022-11-04T04:59:46.629Z,6.31
2022-11-04T05:02:15.485Z,6.15
2022-11-04T05:04:44.139Z,6.55
2022-11-04T05:07:12.598Z,6.43
2022-11-04T05:09:40.985Z,6.41
2022-11-04T05:12:10.414Z,6.56
2022-11-04T05:14:38.915Z,6.67
2022-11-04T05:17:07.490Z,6.57
2022-11-04T05:19:35.843Z,6.19
2022-11-04T05:22:05.086Z,6.29
2022-11-04T05:24:33.460Z,6.60
2022-11-04T05:27:07.557Z,6.41
2022-11-04T05:29:40.401Z,6.64
2022-11-04T05:32:13.069Z,6.18
2022-11-04T05:34:46.170Z,5.66
2022-11-04T05:37:18.576Z,6.09
2022-11-04T05:39:50.442Z,6.49
2022-11-04T05:42:22.236Z,6.08
2022-11-04T05:44:53.512Z,6.84
2022-11-04T05:47:25.123Z,6.68
2022-11-04T05:49:56.418Z,7.22
2022-11-04T05:52:29.127Z,7.59
2022-11-04T05:55:04.757Z,7.92
2022-11-04T05:57:37.745Z,8.12
2022-11-04T06:00:07.511Z,7.97
2022-11-04T06:02:36.121Z,8.11
2022-11-04T06:05:04.832Z,8.46
2022-11-04T06:07:33.338Z,8.54
2022-11-04T06:10:01.917Z,8.89
2022-11-04T06:12:30.618Z,9.08
2022-11-04T06:14:59.048Z,9.43
2022-11-04T06:17:27.538Z,9.32
2022-11-04T06:19:55.901Z,9.62
2022-11-04T06:22:24.280Z,9.93
2022-11-04T06:24:52.710Z,10.16
2022-11-04T06:27:21.302Z,10.30
2022-11-04T06:29:49.717Z,10.33
2022-11-04T06:32:18.543Z,10.16
2022-11-04T06:34:47.162Z,10.59
2022-11-04T06:37:15.730Z,10.95
2022-11-04T06:39:44.182Z,11.62
2022-11-04T06:42:12.653Z,12.07
2022-11-04T06:44:41.029Z,12.31
2022-11-04T06:47:09.779Z,12.58
2022-11-04T06:49:38.376Z,12.92
2022-11-04T06:52:06.705Z,13.08
2022-11-04T06:54:35.209Z,13.71
2022-11-04T06:57:03.941Z,14.23
2022-11-04T06:59:32.352Z,15.10
2022-11-04T07:02:00.872Z,15.83
2022-11-04T07:04:29.378Z,16.56
2022-11-04T07:06:58.471Z,17.34
2022-11-04T07:09:26.889Z,17.55
2022-11-04T07:11:55.288Z,18.15
2022-11-04T07:14:23.767Z,18.29
2022-11-04T07:16:52.225Z,18.27
2022-11-04T07:19:21.366Z,18.81
2022-11-04T07:21:49.829Z,18.74
2022-11-04T07:24:18.430Z,18.36
2022-11-04T07:26:46.790Z,18.40
2022-11-04T07:29:15.446Z,18.57
2022-11-04T07:31:44.230Z,19.30
2022-11-04T07:34:12.657Z,19.72
2022-11-04T07:36:41.106Z,20.23
2022-11-04T07:39:09.595Z,20.17
2022-11-04T07:41:37.957Z,20.58
2022-11-04T07:44:06.452Z,20.94
2022-11-04T07:46:34.902Z,21.17
2022-11-04T07:49:03.452Z,21.99
2022-11-04T07:51:32.887Z,23.32
2022-11-04T07:54:01.633Z,23.84
2022-11-04T07:56:30.220Z,24.58
2022-11-04T07:58:58.824Z,25.27
2022-11-04T08:01:27.310Z,25.29
2022-11-04T08:03:55.911Z,24.70
2022-11-04T08:06:24.269Z,24.33
2022-11-04T08:08:54.348Z,23.45
2022-11-04T08:11:25.672Z,22.72
2022-11-04T08:13:54.557Z,22.78
2022-11-04T08:16:23.990Z,22.17
2022-11-04T08:18:53.067Z,21.93
2022-11-04T08:21:21.728Z,21.95
2022-11-04T08:23:51.782Z,22.39
2022-11-04T08:26:21.066Z,23.10
2022-11-04T08:28:51.213Z,24.39
2022-11-04T08:31:20.741Z,25.56
2022-11-04T08:33:49.832Z,26.53
2022-11-04T08:36:19.094Z,27.08
2022-11-04T08:38:47.578Z,27.88
2022-11-04T08:41:17.155Z,28.73
2022-11-04T08:43:45.816Z,28.55
2022-11-04T08:46:14.711Z,28.25
2022-11-04T08:48:43.360Z,27.06
2022-11-04T08:51:14.524Z,25.71
2022-11-04T08:53:43.135Z,24.71
2022-11-04T08:56:17.306Z,23.52
2022-11-04T08:58:45.799Z,22.71
2022-11-04T09:01:14.330Z,22.26
2022-11-04T09:03:43.023Z,21.50
2022-11-04T09:06:15.260Z,21.32
2022-11-04T09:08:44.544Z,21.34
2022-11-04T09:11:13.825Z,20.91
2022-11-04T09:13:43.036Z,20.71
2022-11-04T09:16:12.585Z,19.60
2022-11-04T09:18:41.101Z,19.45
2022-11-04T09:21:10.055Z,19.39
2022-11-04T09:23:39.415Z,19.92
2022-11-04T09:26:12.522Z,20.54
2022-11-04T09:28:41.607Z,19.29
2022-11-04T09:31:15.110Z,18.30
2022-11-04T09:33:43.709Z,18.72
2022-11-04T09:36:12.412Z,18.74
2022-11-04T09:38:41.728Z,18.40
2022-11-04T09:41:22.158Z,18.37
2022-11-04T09:44:05.105Z,18.30
2022-11-04T09:46:33.613Z,18.39
2022-11-04T09:49:02.439Z,18.61
2022-11-04T09:51:53.772Z,18.19
2022-11-04T09:54:23.774Z,18.37
2022-11-04T09:56:53.413Z,18.46
2022-11-04T09:59:28.244Z,18.36
2022-11-04T10:02:22.794Z,18.78
2022-11-04T10:04:53.595Z,18.76
2022-11-04T10:07:53.483Z,18.88
2022-11-04T10:10:46.221Z,18.83
2022-11-04T10:13:32.204Z,18.92
2022-11-04T10:16:18.738Z,18.34
2022-11-04T10:19:19.854Z,18.16
2022-11-04T10:22:17.537Z,18.12
2022-11-04T10:25:08.942Z,18.62
2022-11-04T10:27:38.976Z,18.36
2022-11-04T10:30:16.008Z,18.50
2022-11-04T10:32:59.934Z,18.87
2022-11-04T10:35:36.174Z,18.62
2022-11-04T10:38:24.828Z,18.67
2022-11-04T10:40:54.675Z,18.47
2022-11-04T10:43:36.617Z,18.26
2022-11-04T10:46:32.098Z,18.96
2022-11-04T10:49:42.090Z,18.68
2022-11-04T10:52:22.959Z,19.09
2022-11-04T10:54:51.821Z,18.61
2022-11-04T10:57:22.452Z,18.98
2022-11-04T11:00:01.448Z,18.83
2022-11-04T11:02:42.098Z,19.32
2022-11-04T11:05:19.350Z,19.36
2022-11-04T11:07:50.580Z,19.34
2022-11-04T11:10:25.052Z,19.67
2022-11-04T11:13:04.968Z,19.79
2022-11-04T11:15:36.040Z,19.87
2022-11-04T11:18:18.415Z,20.09
2022-11-04T11:21:14.520Z,20.01
2022-11-04T11:23:45.672Z,20.17
2022-11-04T11:26:16.913Z,20.09
2022-11-04T11:28:58.616Z,20.23
2022-11-04T11:31:40.077Z,20.54
2022-11-04T11:34:31.310Z,20.31
2022-11-04T11:37:00.148Z,20.41
2022-11-04T11:39:30.876Z,20.58
2022-11-04T11:42:16.949Z,20.23
2022-11-04T11:44:52.172Z,20.15
2022-11-04T11:47:22.093Z,20.40
2022-11-04T11:50:17.515Z,20.66
2022-11-04T11:52:47.686Z,20.01
2022-11-04T11:55:17.421Z,20.23
2022-11-04T12:01:06.919Z,19.95
2022-11-04T12:10:18.524Z,20.74
2022-11-04T12:13:27.093Z,21.37
2022-11-04T12:16:22.800Z,20.61
2022-11-04T12:19:22.202Z,20.66
2022-11-04T12:22:00.750Z,20.52
2022-11-04T12:24:48.398Z,20.75
2022-11-04T12:27:35.638Z,20.65
2022-11-04T12:30:10.693Z,20.61
2022-11-04T12:33:23.497Z,20.70
2022-11-04T12:36:24.756Z,20.46
2022-11-04T12:39:03.059Z,20.70
2022-11-04T12:45:18.147Z,20.55
2022-11-04T12:47:47.850Z,20.77
2022-11-04T12:50:33.538Z,20.84
2022-11-04T12:53:35.728Z,20.79
2022-11-04T12:56:10.252Z,20.76
2022-11-04T12:58:53.496Z,20.68
2022-11-04T13:01:47.245Z,20.25
2022-11-04T13:04:19.719Z,19.98
2022-11-04T13:06:59.083Z,19.56
2022-11-04T13:09:32.963Z,19.95
2022-11-04T13:12:05.692Z,19.61
2022-11-04T13:15:02.251Z,19.91
2022-11-04T13:17:33.394Z,20.10
2022-11-04T13:20:17.901Z,19.93
2022-11-04T13:22:47.807Z,20.22
2022-11-04T13:25:24.882Z,20.04
2022-11-04T13:27:53.995Z,20.21
2022-11-04T13:30:31.394Z,20.38
2022-11-04T13:33:24.137Z,20.57
2022-11-04T13:36:19.151Z,20.62
2022-11-04T13:38:55.793Z,20.36
2022-11-04T13:41:45.509Z,20.09
2022-11-04T13:44:18.117Z,20.60
2022-11-04T13:46:52.809Z,20.69
2022-11-04T13:49:30.873Z,20.72
2022-11-04T13:52:09.015Z,20.73
2022-11-04T13:54:39.210Z,20.79
2022-11-04T13:57:21.099Z,20.28
2022-11-04T14:00:17.871Z,20.19
2022-11-04T14:02:48.033Z,19.95
2022-11-04T14:05:42.622Z,20.01
2022-11-04T14:08:15.476Z,20.01
2022-11-04T14:10:47.436Z,19.76
2022-11-04T14:13:28.453Z,19.67
2022-11-04T14:16:25.015Z,20.05
2022-11-04T14:18:54.673Z,19.88
2022-11-04T14:21:25.034Z,20.15
2022-11-04T14:24:02.578Z,20.13
2022-11-04T14:26:47.002Z,20.17
2022-11-04T14:29:20.617Z,20.38
2022-11-04T14:31:52.959Z,19.81
2022-11-04T14:34:36.764Z,20.02
2022-11-04T14:37:09.913Z,20.08
2022-11-04T14:39:39.694Z,19.85
2022-11-04T14:42:11.797Z,19.99
2022-11-04T14:44:49.572Z,19.80
2022-11-04T14:47:28.488Z,19.92
2022-11-04T14:50:01.910Z,19.77
2022-11-04T14:52:33.611Z,19.71
2022-11-04T14:55:14.126Z,19.68
2022-11-04T14:57:54.573Z,19.52
2022-11-04T15:00:30.286Z,19.41
2022-11-04T15:04:08.655Z,19.33
2022-11-04T15:06:11.738Z,19.06
2022-11-04T15:08:44.374Z,19.03
2022-11-04T15:11:17.918Z,18.99
2022-11-04T15:13:52.446Z,18.71
2022-11-04T15:16:21.650Z,18.40
2022-11-04T15:18:50.692Z,18.35
2022-11-04T15:21:19.420Z,18.45
2022-11-04T15:23:49.708Z,18.26
2022-11-04T15:26:28.142Z,18.38
2022-11-04T15:29:09.504Z,17.79
2022-11-04T15:31:40.100Z,18.21
2022-11-04T15:34:14.180Z,18.09
2022-11-04T15:36:44.390Z,18.16
2022-11-04T15:39:22.421Z,17.79
2022-11-04T15:42:11.465Z,17.60
2022-11-04T15:44:40.118Z,17.96
2022-11-04T15:47:26.143Z,17.80
2022-11-04T15:49:55.200Z,17.75
2022-11-04T15:52:25.641Z,17.79
2022-11-04T15:54:55.372Z,17.81
2022-11-04T15:57:34.538Z,17.88
2022-11-04T16:00:09.324Z,17.67
2022-11-04T16:02:49.706Z,17.74
2022-11-04T16:05:26.731Z,17.63
2022-11-04T16:07:57.224Z,17.43
2022-11-04T16:10:32.656Z,17.61
2022-11-04T16:13:02.546Z,17.47
2022-11-04T16:15:38.429Z,17.52
2022-11-04T16:18:07.932Z,17.39
2022-11-04T16:20:36.499Z,17.37
2022-11-04T16:23:05.025Z,17.21
2022-11-04T16:25:34.689Z,16.99
2022-11-04T16:28:03.188Z,16.98
2022-11-04T16:30:31.715Z,16.69
2022-11-04T16:33:10.991Z,16.27
2022-11-04T16:35:43.223Z,16.54
2022-11-04T16:38:11.919Z,16.73
2022-11-04T16:40:40.447Z,16.78
2022-11-04T16:43:10.652Z,16.73
2022-11-04T16:45:39.403Z,16.56
2022-11-04T16:48:09.050Z,16.58
2022-11-04T16:50:37.560Z,16.35
2022-11-04T16:53:06.141Z,16.25
2022-11-04T16:55:35.612Z,15.83
2022-11-04T16:58:07.846Z,15.96
2022-11-04T17:00:36.590Z,15.91
2022-11-04T17:03:22.054Z,15.51
2022-11-04T17:05:56.660Z,16.02
2022-11-04T17:08:26.024Z,15.92
2022-11-04T17:10:56.355Z,15.39
2022-11-04T17:13:25.963Z,15.65
2022-11-04T17:15:55.004Z,15.61
2022-11-04T17:18:25.512Z,14.89
2022-11-04T17:20:55.518Z,15.40
2022-11-04T17:23:26.098Z,15.03
2022-11-04T17:25:56.321Z,14.40
2022-11-04T17:28:25.834Z,15.05
2022-11-04T17:30:56.324Z,15.11
2022-11-04T17:33:25.600Z,14.86
2022-11-04T17:35:55.054Z,14.82
2022-11-04T17:38:26.257Z,14.69
2022-11-04T17:41:15.853Z,15.16
2022-11-04T17:44:03.394Z,15.15
2022-11-04T17:46:42.212Z,14.84
2022-11-04T17:49:13.867Z,14.64
2022-11-04T17:51:43.874Z,14.82
2022-11-04T17:54:12.780Z,15.08
2022-11-04T17:56:41.894Z,14.88
2022-11-04T17:59:12.534Z,14.38
2022-11-04T18:01:43.419Z,14.74
2022-11-04T18:04:20.415Z,14.91
2022-11-04T18:06:50.174Z,14.91
2022-11-04T18:09:19.277Z,14.78
2022-11-04T18:12:06.303Z,14.95
2022-11-04T18:14:35.096Z,14.74
2022-11-04T18:17:04.961Z,14.74
2022-11-04T18:19:35.610Z,14.37
2022-11-04T18:22:08.604Z,14.40
2022-11-04T18:24:37.908Z,14.48
2022-11-04T18:27:06.780Z,13.63
2022-11-04T18:29:35.743Z,13.60
2022-11-04T18:32:04.616Z,14.16
2022-11-04T18:34:33.335Z,13.87
2022-11-04T18:37:02.070Z,12.98
2022-11-04T18:39:30.816Z,13.39
2022-11-04T18:42:00.775Z,13.05
2022-11-04T18:44:31.085Z,13.02
2022-11-04T18:46:59.883Z,13.21
2022-11-04T18:49:29.476Z,13.72
2022-11-04T18:51:59.760Z,13.21
2022-11-04T18:54:28.296Z,12.89
2022-11-04T18:56:57.707Z,13.18
2022-11-04T18:59:27.029Z,12.57
2022-11-04T19:01:58.186Z,12.98
2022-11-04T19:04:27.254Z,13.22
2022-11-04T19:06:55.896Z,13.42
2022-11-04T19:12:32.369Z,13.46
2022-11-04T19:15:00.996Z,13.20
2022-11-04T19:17:30.027Z,13.43
2022-11-04T19:19:58.999Z,13.31
2022-11-04T19:22:28.635Z,13.24
2022-11-04T19:24:57.433Z,13.26
2022-11-04T19:27:26.098Z,13.68
2022-11-04T19:29:56.665Z,13.29
2022-11-04T19:32:25.894Z,12.94
2022-11-04T19:34:54.462Z,12.79
2022-11-04T19:37:23.932Z,13.05
2022-11-04T19:39:52.483Z,12.92
2022-11-04T19:42:40.705Z,12.53
2022-11-04T19:45:09.914Z,12.81
2022-11-04T19:47:38.689Z,13.06
2022-11-04T19:50:07.763Z,11.88
2022-11-04T19:52:36.350Z,12.26
2022-11-04T19:55:07.672Z,12.39
2022-11-04T19:57:36.281Z,12.97
2022-11-04T20:00:05.447Z,12.98
2022-11-04T20:02:41.071Z,13.14
2022-11-04T20:05:10.509Z,12.91
2022-11-04T20:07:39.809Z,13.15
2022-11-04T20:10:09.133Z,13.04
2022-11-04T20:12:56.585Z,13.16
2022-11-04T20:15:26.627Z,13.01
2022-11-04T20:17:55.332Z,12.81
2022-11-04T20:20:23.931Z,12.89
2022-11-04T20:22:52.546Z,12.85
2022-11-04T20:25:22.235Z,12.79
2022-11-04T20:27:51.016Z,12.75
2022-11-04T20:30:19.587Z,12.70
2022-11-04T20:32:48.173Z,12.74
2022-11-04T20:35:16.656Z,12.49
2022-11-04T20:37:47.222Z,12.00
2022-11-04T20:40:15.808Z,11.60
2022-11-04T20:42:48.047Z,12.44
2022-11-04T20:45:18.036Z,12.52
2022-11-04T20:47:46.806Z,12.72
2022-11-04T20:50:15.742Z,12.24
2022-11-04T20:52:44.198Z,12.02
2022-11-04T20:55:12.683Z,12.42
2022-11-04T20:57:41.420Z,11.68
2022-11-04T21:00:11.194Z,11.71
2022-11-04T21:02:39.641Z,12.08
2022-11-04T21:05:08.304Z,12.15
2022-11-04T21:07:37.394Z,12.22
2022-11-04T21:10:06.212Z,11.97
2022-11-04T21:12:34.683Z,12.26
2022-11-04T21:15:03.084Z,12.06
2022-11-04T21:17:33.912Z,12.18
2022-11-04T21:20:06.395Z,12.14
2022-11-04T21:22:35.548Z,11.98
2022-11-04T21:25:04.728Z,11.89
2022-11-04T21:27:33.130Z,11.79
2022-11-04T21:30:01.578Z,11.82
2022-11-04T21:32:30.326Z,11.52
2022-11-04T21:34:58.829Z,10.75
2022-11-04T21:37:27.261Z,11.46
2022-11-04T21:39:56.290Z,11.06
2022-11-04T21:42:24.708Z,11.53
2022-11-04T21:44:53.154Z,10.99
2022-11-04T21:47:21.624Z,11.29
2022-11-04T21:49:51.060Z,11.69
2022-11-04T21:52:19.522Z,11.04
2022-11-04T21:54:47.922Z,11.55
2022-11-04T21:57:16.281Z,11.21
2022-11-04T21:59:44.664Z,11.67
2022-11-04T22:02:13.278Z,12.02
2022-11-04T22:04:41.784Z,12.06
2022-11-04T22:07:10.278Z,11.85
2022-11-04T22:09:38.756Z,11.87
2022-11-04T22:12:07.765Z,11.80
2022-11-04T22:14:36.179Z,12.12
2022-11-04T22:17:04.600Z,12.03
2022-11-04T22:19:33.018Z,11.66
2022-11-04T22:22:02.132Z,11.49
2022-11-04T22:24:30.454Z,11.92
2022-11-04T22:26:58.910Z,11.89
2022-11-04T22:29:27.350Z,11.88
2022-11-04T22:31:55.795Z,11.57
2022-11-04T22:34:25.258Z,11.25
2022-11-04T22:36:53.653Z,11.82
2022-11-04T22:39:22.053Z,11.81
2022-11-04T22:41:50.535Z,11.75
2022-11-04T22:44:18.907Z,11.02
2022-11-04T22:46:47.326Z,11.56
2022-11-04T22:49:15.737Z,10.97
2022-11-04T22:51:44.180Z,11.06
2022-11-04T22:54:12.648Z,11.22
2022-11-04T22:56:41.021Z,10.96
2022-11-04T22:59:11.206Z,10.39
2022-11-04T23:01:39.677Z,10.75
2022-11-04T23:04:12.047Z,10.80
2022-11-04T23:06:40.669Z,11.20
2022-11-04T23:09:10.043Z,11.34
2022-11-04T23:11:56.664Z,10.94
2022-11-04T23:14:54.515Z,11.46
2022-11-04T23:17:41.221Z,11.36
2022-11-04T23:20:13.405Z,11.38
2022-11-04T23:23:00.409Z,10.95
2022-11-04T23:25:28.938Z,11.23
2022-11-04T23:28:15.999Z,10.96
2022-11-04T23:30:50.695Z,11.14
2022-11-04T23:33:19.638Z,11.44
2022-11-04T23:36:07.567Z,11.21
2022-11-04T23:38:35.944Z,11.62
2022-11-04T23:41:26.169Z,11.15
2022-11-04T23:43:55.307Z,10.64
2022-11-04T23:46:43.596Z,11.25
2022-11-04T23:49:30.629Z,10.89
2022-11-04T23:52:17.859Z,10.86
2022-11-04T23:55:04.856Z,11.09
2022-11-04T23:57:51.497Z,11.13
